Terminal Aerodrome Forecast
Issued by NWS St Louis, MO

Home | Current Version | Previous Version | Text Only | Print | Product List | Glossary On
Versions: 1 2 3 4 5 6 7 8 9 10 11 12 13 14 15 16 17 18 19
000
FTUS43 KLSX 192300
TAFCOU
TAF
KCOU 192338Z 2000/2024 VRB04KT P6SM SCT250
     FM200900 VRB04KT P6SM VCSH BKN060
     FM201100 17006KT P6SM SCT070
     FM201600 20010KT P6SM FEW050=

USA.gov is the U.S. government's official web portal to all federal, state and local government web resources and services.